Time;durP1;ratioP1;P1;durP2;ratioP2;P2;SDS_P1;SDS_P2;PMS_P1;PMS_P2;Temp;Humidity;BMP_temperature;BMP_pressure;BME280_temperature;BME280_humidity;BME280_pressure;Samples;Min_cycle;Max_cycle;Signal;HPM_P1;HPM_P2
2024/01/17 00:00:35;;;;;;;3.22;2.03;;;;;;;;;;5057606;28;20041;-32
2024/01/17 00:03:02;;;;;;;3.63;2.00;;;18.40;57.70;;;;;;5072055;28;20083;-34
2024/01/17 00:05:31;;;;;;;4.32;2.35;;;18.40;38.50;;;;;;5072348;28;20110;-34
2024/01/17 00:07:58;;;;;;;2.45;2.10;;;;;;;;;;5071881;28;20076;-33
2024/01/17 00:10:25;;;;;;;4.75;2.38;;;18.10;57.40;;;;;;5072292;28;20645;-36
2024/01/17 00:12:52;;;;;;;4.15;2.30;;;;;;;;;;5072279;28;20080;-31
2024/01/17 00:15:19;;;;;;;2.88;2.13;;;18.50;57.80;;;;;;5072079;28;20107;-35
2024/01/17 00:17:47;;;;;;;3.45;2.45;;;;;;;;;;5071665;28;20083;-32
2024/01/17 00:20:14;;;;;;;3.55;2.22;;;18.40;43.60;;;;;;5071967;28;20079;-34
2024/01/17 00:22:42;;;;;;;3.03;2.10;;;19.10;58.40;;;;;;5071847;28;20105;-37
2024/01/17 00:25:09;;;;;;;3.85;2.15;;;18.20;58.30;;;;;;5071833;28;20567;-36
2024/01/17 00:27:36;;;;;;;4.80;2.65;;;18.50;45.30;;;;;;5071602;28;20102;-35
2024/01/17 00:30:03;;;;;;;3.13;2.05;;;18.10;44.50;;;;;;5071948;28;20045;-37
2024/01/17 00:32:31;;;;;;;4.03;2.20;;;18.50;43.80;;;;;;5071636;28;20421;-33
2024/01/17 00:34:58;;;;;;;3.38;1.95;;;;;;;;;;5056659;28;20052;-33
2024/01/17 00:37:26;;;;;;;3.78;2.22;;;;;;;;;;5064247;28;20049;-28
2024/01/17 00:39:54;;;;;;;4.55;2.38;;;18.50;54.00;;;;;;5071646;28;20147;-28
2024/01/17 00:42:21;;;;;;;4.15;2.40;;;16.80;56.80;;;;;;5071413;28;20052;-28
2024/01/17 00:44:48;;;;;;;3.55;2.28;;;17.80;58.00;;;;;;5071794;28;20057;-28
2024/01/17 00:47:15;;;;;;;4.05;2.20;;;;;;;;;;5071383;28;20056;-33
2024/01/17 00:49:41;;;;;;;3.47;2.22;;;17.40;50.30;;;;;;5071572;28;20110;-28
2024/01/17 00:52:09;;;;;;;3.85;2.40;;;18.10;58.80;;;;;;5070904;28;20060;-27
2024/01/17 00:54:36;;;;;;;4.10;2.55;;;18.10;58.70;;;;;;5071649;28;20045;-28
2024/01/17 00:57:05;;;;;;;4.35;2.45;;;18.10;39.00;;;;;;5070885;28;20559;-29
2024/01/17 00:59:31;;;;;;;3.90;2.20;;;17.90;58.90;;;;;;5071444;28;20555;-28
2024/01/17 01:01:58;;;;;;;3.78;2.53;;;17.70;58.60;;;;;;5071604;28;20048;-27
2024/01/17 01:04:25;;;;;;;4.55;2.45;;;;;;;;;;5071447;28;20048;-31
2024/01/17 01:06:52;;;;;;;3.53;2.20;;;;;;;;;;5066438;28;20103;-31
2024/01/17 01:09:20;;;;;;;3.13;2.22;;;;;;;;;;5064118;28;20068;-34
2024/01/17 01:11:47;;;;;;;3.22;2.05;;;17.80;58.70;;;;;;5071567;28;20127;-34
2024/01/17 01:14:15;;;;;;;4.53;2.85;;;18.80;39.40;;;;;;5071565;28;20049;-32
2024/01/17 01:16:42;;;;;;;3.40;2.30;;;;;;;;;;5070686;28;20117;-32
2024/01/17 01:19:09;;;;;;;3.65;2.40;;;17.80;58.80;;;;;;5070114;28;20093;-38
2024/01/17 01:21:36;;;;;;;4.15;2.72;;;;;;;;;;5071185;28;20127;-31
2024/01/17 01:24:03;;;;;;;3.58;2.50;;;18.10;58.80;;;;;;5054597;28;20045;-37
2024/01/17 01:26:30;;;;;;;3.58;2.80;;;;;;;;;;5051073;28;20771;-28
2024/01/17 01:28:57;;;;;;;5.20;2.80;;;18.50;59.20;;;;;;5051243;28;20490;-28
2024/01/17 01:31:25;;;;;;;4.68;2.70;;;17.70;38.60;;;;;;5053399;28;20052;-31
2024/01/17 01:33:52;;;;;;;4.85;2.80;;;;;;;;;;5071278;28;20048;-31
2024/01/17 01:36:19;;;;;;;4.38;2.60;;;;;;;;;;5070734;28;20105;-41
2024/01/17 01:38:46;;;;;;;3.70;2.33;;;16.50;43.10;;;;;;5070489;28;20455;-29
2024/01/17 01:41:13;;;;;;;4.50;2.90;;;18.00;58.80;;;;;;5051764;28;20049;-27
2024/01/17 01:43:40;;;;;;;4.53;2.67;;;18.00;58.80;;;;;;5051127;28;20048;-28
2024/01/17 01:46:14;;;;;;;4.85;2.97;;;17.80;48.60;;;;;;5050922;28;20475;-29
2024/01/17 01:48:43;;;;;;;4.25;2.40;;;17.70;38.80;;;;;;5050836;28;20060;-31
2024/01/17 01:51:10;;;;;;;4.75;2.95;;;17.70;58.60;;;;;;5051197;28;20049;-28
2024/01/17 01:53:37;;;;;;;3.20;2.53;;;17.00;47.70;;;;;;5051030;28;20077;-30
2024/01/17 01:56:04;;;;;;;2.83;2.17;;;18.20;59.30;;;;;;5052207;28;20049;-28
2024/01/17 01:58:31;;;;;;;4.93;2.45;;;18.80;45.90;;;;;;5050836;28;20053;-29
2024/01/17 02:00:57;;;;;;;4.60;2.47;;;18.30;59.30;;;;;;5050684;28;20111;-28
2024/01/17 02:03:25;;;;;;;4.97;3.00;;;17.70;59.00;;;;;;5051184;28;20103;-28
2024/01/17 02:05:53;;;;;;;3.75;2.60;;;17.80;58.90;;;;;;5053789;28;20128;-27
2024/01/17 02:08:20;;;;;;;3.75;2.65;;;17.20;58.10;;;;;;5054367;28;20049;-28
2024/01/17 02:10:47;;;;;;;3.88;2.38;;;;;;;;;;5054066;28;20496;-33
2024/01/17 02:13:14;;;;;;;4.43;2.63;;;18.20;58.90;;;;;;5065004;28;20044;-28
2024/01/17 02:15:41;;;;;;;4.78;2.65;;;;;;;;;;5074087;28;20060;-27
2024/01/17 02:18:08;;;;;;;4.68;2.45;;;19.00;59.40;;;;;;5074039;28;20501;-28
2024/01/17 02:20:35;;;;;;;3.80;2.60;;;18.10;58.70;;;;;;5074524;28;20103;-28
2024/01/17 02:23:03;;;;;;;5.32;2.63;;;18.60;53.20;;;;;;5055870;28;20095;-28
2024/01/17 02:25:32;;;;;;;4.60;2.85;;;18.70;58.90;;;;;;5054058;28;20053;-28
2024/01/17 02:27:58;;;;;;;3.78;2.60;;;18.40;46.50;;;;;;5053737;28;20448;-28
2024/01/17 02:30:25;;;;;;;5.13;2.60;;;18.50;58.40;;;;;;5055045;28;20041;-28
2024/01/17 02:32:52;;;;;;;5.47;2.80;;;18.60;48.60;;;;;;5068591;28;20497;-28
2024/01/17 02:35:20;;;;;;;4.57;2.65;;;18.60;58.20;;;;;;5073933;28;20053;-28
2024/01/17 02:37:46;;;;;;;4.28;2.78;;;18.40;50.30;;;;;;5073155;28;20053;-37
2024/01/17 02:40:14;;;;;;;3.33;2.35;;;;;;;;;;5073811;28;20489;-37
2024/01/17 02:42:43;;;;;;;4.20;2.63;;;18.40;58.30;;;;;;5074064;28;20083;-33
2024/01/17 02:45:10;;;;;;;4.20;2.80;;;18.90;48.20;;;;;;5069745;28;20510;-34
2024/01/17 02:47:37;;;;;;;4.97;2.97;;;17.80;58.00;;;;;;5072426;28;20454;-33
2024/01/17 02:50:04;;;;;;;5.68;2.92;;;;;;;;;;5073579;28;20060;-31
2024/01/17 02:52:32;;;;;;;5.65;3.05;;;;;;;;;;5073508;28;20141;-36
2024/01/17 02:54:59;;;;;;;3.78;2.63;;;;;;;;;;5073444;28;20122;-33
2024/01/17 02:57:25;;;;;;;4.35;2.53;;;19.70;58.40;;;;;;5073353;28;20497;-28
2024/01/17 02:59:54;;;;;;;5.82;2.83;;;18.70;38.50;;;;;;5073559;28;20053;-33
2024/01/17 03:02:21;;;;;;;3.63;2.45;;;;;;;;;;5071780;28;20048;-33
2024/01/17 03:04:50;;;;;;;4.15;2.85;;;17.90;57.50;;;;;;5073540;28;20044;-28
2024/01/17 03:07:17;;;;;;;4.20;2.90;;;;;;;;;;5073172;28;20151;-32
2024/01/17 03:09:44;;;;;;;3.58;2.30;;;18.70;58.10;;;;;;5073729;28;20074;-29
2024/01/17 03:12:11;;;;;;;4.05;2.63;;;;;;;;;;5073008;28;20049;-30
2024/01/17 03:14:38;;;;;;;5.50;3.20;;;19.00;58.30;;;;;;5073353;28;20093;-28
2024/01/17 03:17:06;;;;;;;4.72;2.70;;;19.50;47.00;;;;;;5072851;28;20131;-28
2024/01/17 03:19:33;;;;;;;3.72;2.78;;;19.50;42.10;;;;;;5057425;28;20053;-29
2024/01/17 03:22:01;;;;;;;3.22;2.45;;;19.10;52.50;;;;;;5053106;28;20098;-28
2024/01/17 03:24:28;;;;;;;4.68;2.95;;;19.10;55.40;;;;;;5053133;28;20085;-29
2024/01/17 03:26:54;;;;;;;4.13;2.88;;;18.90;58.10;;;;;;5053047;28;20111;-28
2024/01/17 03:29:21;;;;;;;4.85;2.83;;;;;;;;;;5052871;28;20498;-34
2024/01/17 03:31:48;;;;;;;4.53;2.67;;;18.20;57.10;;;;;;5058780;28;20082;-35
2024/01/17 03:34:16;;;;;;;4.07;3.08;;;19.10;39.00;;;;;;5071958;28;20440;-34
2024/01/17 03:36:43;;;;;;;5.18;2.97;;;18.70;57.50;;;;;;5072208;28;20052;-37
2024/01/17 03:39:10;;;;;;;4.57;2.88;;;18.40;47.60;;;;;;5072490;28;20443;-36
2024/01/17 03:41:37;;;;;;;5.05;2.70;;;19.20;58.00;;;;;;5072793;28;20044;-37
2024/01/17 03:44:04;;;;;;;4.28;2.67;;;;;;;;;;5072731;28;20057;-36
2024/01/17 03:46:31;;;;;;;5.75;3.20;;;19.90;58.10;;;;;;5072494;28;20098;-35
2024/01/17 03:48:57;;;;;;;4.22;2.92;;;18.70;57.40;;;;;;5065998;28;20045;-34
2024/01/17 03:51:25;;;;;;;5.32;3.30;;;19.20;45.70;;;;;;5052629;28;20044;-34
2024/01/17 03:53:53;;;;;;;5.03;2.90;;;18.70;41.50;;;;;;5052578;28;20458;-33
2024/01/17 03:56:19;;;;;;;3.83;2.85;;;19.40;52.50;;;;;;5052268;28;20457;-35
2024/01/17 03:58:46;;;;;;;3.20;2.53;;;;;;;;;;5052406;28;20052;-32
2024/01/17 04:01:13;;;;;;;4.65;3.20;;;18.60;57.30;;;;;;5052335;28;20391;-36
2024/01/17 04:03:41;;;;;;;4.00;2.95;;;;;;;;;;5052344;28;20108;-31
2024/01/17 04:06:07;;;;;;;4.28;2.63;;;19.90;49.50;;;;;;5052137;28;20128;-33
2024/01/17 04:08:36;;;;;;;5.22;3.00;;;18.90;38.30;;;;;;5070363;28;20455;-33
2024/01/17 04:11:03;;;;;;;4.80;2.90;;;;;;;;;;5072225;28;20076;-31
2024/01/17 04:13:30;;;;;;;5.50;3.00;;;19.00;43.20;;;;;;5072228;28;20082;-38
2024/01/17 04:15:57;;;;;;;3.45;2.80;;;;;;;;;;5071788;28;20109;-33
2024/01/17 04:18:23;;;;;;;3.40;2.67;;;19.20;57.60;;;;;;5054192;28;20052;-36
2024/01/17 04:20:51;;;;;;;4.20;2.70;;;;;;;;;;5052475;28;20094;-36
2024/01/17 04:23:18;;;;;;;3.67;2.80;;;19.20;58.50;;;;;;5052071;28;20099;-34
2024/01/17 04:25:46;;;;;;;4.80;2.92;;;19.10;57.40;;;;;;5051871;28;20045;-33
2024/01/17 04:28:13;;;;;;;4.40;2.70;;;19.10;57.90;;;;;;5051084;28;20541;-36
2024/01/17 04:30:40;;;;;;;3.65;2.58;;;19.00;47.10;;;;;;5051837;28;20045;-35
2024/01/17 04:33:09;;;;;;;4.38;2.88;;;19.50;42.70;;;;;;5068739;28;20056;-38
2024/01/17 04:35:36;;;;;;;3.72;2.70;;;19.10;54.80;;;;;;5071602;28;20056;-33
2024/01/17 04:38:04;;;;;;;4.38;2.50;;;19.10;57.90;;;;;;5071193;28;20053;-33
2024/01/17 04:40:30;;;;;;;3.75;2.65;;;18.60;57.60;;;;;;5071723;28;20087;-35
2024/01/17 04:42:59;;;;;;;4.15;2.90;;;19.00;57.50;;;;;;5071743;28;20487;-37
2024/01/17 04:45:25;;;;;;;4.07;2.53;;;18.80;57.50;;;;;;5055663;28;20103;-35
2024/01/17 04:47:52;;;;;;;4.40;2.75;;;18.70;56.20;;;;;;5051605;28;20122;-34
2024/01/17 04:50:19;;;;;;;4.97;2.90;;;19.20;57.90;;;;;;5051763;28;20106;-34
2024/01/17 04:52:46;;;;;;;4.57;2.78;;;;;;;;;;5051686;28;20461;-32
2024/01/17 04:55:15;;;;;;;5.40;2.85;;;18.90;57.10;;;;;;5051766;28;20049;-36
2024/01/17 04:57:41;;;;;;;4.95;3.00;;;19.80;57.80;;;;;;5051264;28;20056;-37
2024/01/17 05:00:12;;;;;;;6.25;2.88;;;19.60;39.40;;;;;;5051431;28;20490;-33
2024/01/17 05:02:39;;;;;;;3.70;2.40;;;18.20;57.20;;;;;;5051990;28;20124;-37
2024/01/17 05:05:06;;;;;;;3.83;2.75;;;19.80;58.30;;;;;;5063134;28;20044;-36
2024/01/17 05:07:33;;;;;;;3.80;2.60;;;18.70;57.60;;;;;;5053654;28;20083;-35
2024/01/17 05:10:00;;;;;;;2.95;2.60;;;;;;;;;;5063352;28;20102;-34
2024/01/17 05:12:28;;;;;;;3.90;2.65;;;;;;;;;;5051290;28;20052;-33
2024/01/17 05:14:55;;;;;;;4.30;2.75;;;;;;;;;;5055586;28;20049;-33
2024/01/17 05:17:23;;;;;;;3.38;2.42;;;18.00;57.10;;;;;;5051390;28;20068;-37
2024/01/17 05:19:50;;;;;;;4.20;2.70;;;18.10;57.30;;;;;;5051461;28;20136;-36
2024/01/17 05:22:17;;;;;;;3.83;2.80;;;;;;;;;;5051452;28;20082;-33
2024/01/17 05:24:44;;;;;;;4.07;2.42;;;19.90;58.20;;;;;;5062556;28;20106;-34
2024/01/17 05:27:11;;;;;;;5.68;2.58;;;;;;;;;;5055518;28;20102;-32
2024/01/17 05:29:43;;;;;;;3.97;2.78;;;19.10;57.50;;;;;;5051183;28;20057;-34
2024/01/17 05:32:10;;;;;;;3.80;2.30;;;19.70;57.80;;;;;;5060229;28;20047;-28
2024/01/17 05:34:38;;;;;;;3.45;2.53;;;18.80;58.30;;;;;;5060702;28;20045;-28
2024/01/17 05:37:06;;;;;;;3.53;2.65;;;18.90;39.30;;;;;;5060614;28;20083;-30
2024/01/17 05:39:32;;;;;;;3.65;2.38;;;18.70;57.60;;;;;;5072073;28;20048;-28
2024/01/17 05:42:00;;;;;;;3.70;2.47;;;;;;;;;;5075452;28;20102;-31
2024/01/17 05:44:27;;;;;;;4.47;2.47;;;;;;;;;;5065857;28;20523;-28
2024/01/17 05:46:54;;;;;;;3.22;2.58;;;;;;;;;;5054719;28;20095;-31
2024/01/17 05:49:21;;;;;;;4.32;2.53;;;;;;;;;;5054818;28;20045;-28
2024/01/17 05:51:49;;;;;;;3.55;2.35;;;18.80;44.60;;;;;;5054706;28;20110;-31
2024/01/17 05:54:16;;;;;;;3.80;2.58;;;19.00;46.50;;;;;;5054978;28;20099;-29
2024/01/17 05:56:43;;;;;;;3.78;2.63;;;;;;;;;;5062170;28;20488;-29
2024/01/17 05:59:13;;;;;;;3.75;2.30;;;;;;;;;;5057237;28;20049;-32
2024/01/17 06:01:39;;;;;;;3.50;2.55;;;19.20;58.20;;;;;;5074577;28;20045;-27
2024/01/17 06:04:06;;;;;;;3.38;2.20;;;;;;;;;;5068927;28;20045;-32
2024/01/17 06:06:34;;;;;;;3.88;2.70;;;;;;;;;;5054425;28;20605;-28
2024/01/17 06:09:02;;;;;;;3.13;2.30;;;19.10;38.30;;;;;;5054497;28;20126;-29
2024/01/17 06:11:28;;;;;;;3.70;2.55;;;19.40;49.00;;;;;;5054695;28;20052;-38
2024/01/17 06:13:55;;;;;;;3.67;2.38;;;18.90;57.30;;;;;;5054392;28;20052;-34
2024/01/17 06:16:22;;;;;;;3.70;2.30;;;19.20;57.40;;;;;;5054254;28;20522;-35
2024/01/17 06:18:49;;;;;;;3.17;2.40;;;19.10;57.40;;;;;;5054106;28;20045;-36
2024/01/17 06:21:16;;;;;;;3.65;2.50;;;18.70;57.20;;;;;;5054534;28;20049;-36
2024/01/17 06:23:43;;;;;;;2.40;2.15;;;18.60;41.30;;;;;;5054290;28;20102;-30
2024/01/17 06:26:11;;;;;;;3.05;2.40;;;18.90;57.60;;;;;;5054013;28;20139;-28
2024/01/17 06:28:38;;;;;;;3.00;2.25;;;19.30;57.90;;;;;;5054128;28;20096;-28
2024/01/17 06:31:05;;;;;;;3.83;2.40;;;;;;;;;;5053882;28;20514;-33
2024/01/17 06:33:32;;;;;;;3.33;2.22;;;;;;;;;;5053643;28;20052;-28
2024/01/17 06:35:59;;;;;;;3.95;3.10;;;;;;;;;;5054676;28;20379;-31
2024/01/17 06:38:27;;;;;;;2.90;2.08;;;;;;;;;;5073913;28;20049;-28
2024/01/17 06:40:54;;;;;;;4.32;2.60;;;;;;;;;;5073884;28;20052;-28
2024/01/17 06:43:22;;;;;;;3.45;2.20;;;20.10;58.30;;;;;;5073738;28;20049;-27
2024/01/17 06:45:49;;;;;;;4.20;2.40;;;18.80;48.30;;;;;;5054375;28;20431;-28
2024/01/17 06:48:16;;;;;;;4.18;3.47;;;20.00;48.90;;;;;;5053557;28;20052;-28
2024/01/17 06:50:43;;;;;;;3.22;2.40;;;19.30;57.80;;;;;;5053561;28;20053;-28
2024/01/17 06:53:11;;;;;;;3.67;2.15;;;;;;;;;;5053556;28;20045;-33
2024/01/17 06:55:39;;;;;;;3.88;2.20;;;19.00;57.60;;;;;;5057940;28;20068;-28
2024/01/17 06:58:06;;;;;;;3.72;2.42;;;20.10;40.90;;;;;;5073061;28;20080;-32
2024/01/17 07:00:34;;;;;;;3.15;2.00;;;18.60;57.00;;;;;;5073515;28;20471;-35
2024/01/17 07:03:01;;;;;;;3.30;2.42;;;19.10;51.10;;;;;;5073613;28;20048;-35
2024/01/17 07:05:28;;;;;;;2.70;2.10;;;19.00;42.30;;;;;;5058044;28;20114;-33
2024/01/17 07:07:55;;;;;;;3.92;2.65;;;19.20;57.80;;;;;;5053026;28;20124;-35
2024/01/17 07:10:23;;;;;;;3.13;2.28;;;;;;;;;;5053273;28;20048;-33
2024/01/17 07:12:50;;;;;;;3.72;2.47;;;;;;;;;;5053309;28;20466;-34
2024/01/17 07:15:17;;;;;;;3.53;2.50;;;18.60;51.00;;;;;;5053132;28;20421;-37
2024/01/17 07:17:45;;;;;;;2.83;2.30;;;18.50;47.60;;;;;;5063334;28;20049;-37
2024/01/17 07:20:13;;;;;;;3.47;2.30;;;19.10;38.20;;;;;;5060984;28;20076;-31
2024/01/17 07:22:41;;;;;;;3.50;2.40;;;;;;;;;;5061470;28;20086;-34
2024/01/17 07:25:10;;;;;;;4.45;2.30;;;19.00;58.10;;;;;;5052197;28;20049;-37
2024/01/17 07:27:37;;;;;;;4.07;2.10;;;;;;;;;;5052926;28;20409;-34
2024/01/17 07:30:05;;;;;;;4.05;2.53;;;19.50;57.90;;;;;;5052909;28;20053;-35
2024/01/17 07:32:32;;;;;;;4.25;2.78;;;19.00;57.60;;;;;;5064879;28;20090;-35
2024/01/17 07:35:00;;;;;;;3.08;2.20;;;19.10;38.10;;;;;;5063294;28;20072;-31
2024/01/17 07:37:27;;;;;;;3.50;2.20;;;18.80;42.80;;;;;;5065612;28;20424;-29
2024/01/17 07:39:54;;;;;;;3.05;2.35;;;19.10;57.10;;;;;;5072479;28;20048;-28
2024/01/17 07:42:21;;;;;;;3.03;2.28;;;;;;;;;;5072589;28;20063;-31
2024/01/17 07:44:48;;;;;;;3.95;2.35;;;19.40;57.40;;;;;;5063835;28;20052;-28
2024/01/17 07:47:16;;;;;;;3.75;2.47;;;;;;;;;;5052059;28;20506;-32
2024/01/17 07:49:43;;;;;;;3.28;2.53;;;19.10;38.10;;;;;;5052802;28;20083;-28
2024/01/17 07:52:11;;;;;;;3.45;2.63;;;19.90;57.60;;;;;;5059039;28;20086;-28
2024/01/17 07:54:38;;;;;;;2.92;2.17;;;18.40;57.10;;;;;;5072390;28;20114;-34
2024/01/17 07:57:06;;;;;;;4.18;2.33;;;;;;;;;;5072146;28;20513;-31
2024/01/17 07:59:32;;;;;;;3.10;2.20;;;19.80;58.00;;;;;;5072343;28;20048;-37
2024/01/17 08:02:00;;;;;;;3.15;2.20;;;;;;;;;;5070434;28;20052;-35
2024/01/17 08:04:26;;;;;;;3.08;2.25;;;19.70;57.40;;;;;;5072300;28;20052;-37
2024/01/17 08:06:54;;;;;;;2.30;1.95;;;;;;;;;;5072135;28;20456;-34
2024/01/17 08:09:22;;;;;;;2.70;2.25;;;18.80;56.90;;;;;;5072019;28;20090;-36
2024/01/17 08:11:49;;;;;;;3.83;2.55;;;18.70;57.80;;;;;;5063036;28;20052;-35
2024/01/17 08:14:16;;;;;;;2.88;2.30;;;;;;;;;;5052070;28;20048;-34
2024/01/17 08:16:43;;;;;;;4.05;2.53;;;17.90;56.50;;;;;;5052123;28;20095;-35
2024/01/17 08:19:11;;;;;;;4.55;2.40;;;;;;;;;;5052009;28;20049;-31
2024/01/17 08:21:37;;;;;;;3.92;2.08;;;19.00;57.20;;;;;;5059350;28;20048;-35
2024/01/17 08:24:05;;;;;;;3.83;2.40;;;;;;;;;;5071923;28;20049;-34
2024/01/17 08:26:33;;;;;;;3.67;2.40;;;19.10;38.00;;;;;;5068219;28;20049;-32
2024/01/17 08:29:01;;;;;;;3.75;2.40;;;;;;;;;;5072035;28;20048;-31
2024/01/17 08:31:27;;;;;;;3.47;2.20;;;18.70;57.50;;;;;;5068524;28;20102;-34
2024/01/17 08:33:56;;;;;;;5.85;2.30;;;;;;;;;;5052060;28;20118;-33
2024/01/17 08:36:23;;;;;;;4.53;2.28;;;19.20;57.20;;;;;;5055575;28;20056;-29
2024/01/17 08:38:50;;;;;;;3.30;2.22;;;;;;;;;;5071890;28;20470;-28
2024/01/17 08:41:19;;;;;;;3.60;2.33;;;19.10;38.00;;;;;;5068334;28;20052;-29
2024/01/17 08:43:47;;;;;;;3.33;2.30;;;19.10;57.10;;;;;;5052198;28;20052;-28
2024/01/17 08:46:14;;;;;;;3.80;2.15;;;19.20;57.10;;;;;;5051679;28;20127;-39
2024/01/17 08:48:41;;;;;;;3.53;2.40;;;19.20;38.00;;;;;;5060497;28;20059;-34
2024/01/17 08:51:08;;;;;;;3.72;2.20;;;20.00;58.30;;;;;;5071260;28;20049;-28
2024/01/17 08:53:35;;;;;;;3.10;2.20;;;;;;;;;;5071859;28;20049;-31
2024/01/17 08:56:05;;;;;;;4.53;2.38;;;19.60;57.10;;;;;;5071719;28;20044;-28
2024/01/17 08:58:31;;;;;;;3.67;2.20;;;20.30;44.00;;;;;;5071691;28;20076;-28
2024/01/17 09:01:01;;;;;;;3.42;2.25;;;18.90;57.10;;;;;;5070326;28;20048;-27
2024/01/17 09:03:29;;;;;;;3.08;2.25;;;18.90;56.60;;;;;;5051634;28;20127;-28
2024/01/17 09:05:56;;;;;;;4.47;2.60;;;18.60;39.90;;;;;;5051731;28;20057;-30
2024/01/17 09:08:23;;;;;;;3.42;2.28;;;18.40;56.60;;;;;;5051483;28;20056;-36
2024/01/17 09:10:50;;;;;;;5.00;2.33;;;19.20;41.20;;;;;;5051727;28;20136;-34
2024/01/17 09:13:17;;;;;;;3.00;2.08;;;19.50;56.30;;;;;;5072028;28;20493;-34
2024/01/17 09:15:45;;;;;;;3.30;2.00;;;;;;;;;;5065579;28;20383;-31
2024/01/17 09:18:17;;;;;;;3.47;2.53;;;19.60;37.90;;;;;;5057935;28;20048;-33
2024/01/17 09:20:44;;;;;;;3.67;2.13;;;19.80;41.60;;;;;;5071750;28;20055;-33
2024/01/17 09:23:11;;;;;;;2.30;1.90;;;19.90;56.90;;;;;;5074968;28;20558;-28
2024/01/17 09:25:38;;;;;;;3.17;2.00;;;;;;;;;;5073357;28;20130;-29
2024/01/17 09:28:06;;;;;;;2.85;2.10;;;19.50;57.30;;;;;;5074642;28;20493;-27
2024/01/17 09:30:33;;;;;;;2.97;2.20;;;19.80;43.00;;;;;;5075020;28;20465;-28
2024/01/17 09:33:00;;;;;;;3.22;2.15;;;19.90;56.60;;;;;;5073503;28;20102;-28
2024/01/17 09:35:32;;;;;;;3.78;2.15;;;19.30;45.20;;;;;;5074922;28;20114;-29
2024/01/17 09:37:59;;;;;;;3.00;1.95;;;19.40;57.20;;;;;;5061981;28;20044;-28
2024/01/17 09:40:26;;;;;;;3.72;2.00;;;19.50;57.20;;;;;;5065198;28;20468;-29
2024/01/17 09:42:53;;;;;;;4.32;1.83;;;;;;;;;;5059826;28;20544;-32
2024/01/17 09:45:20;;;;;;;3.90;2.10;;;19.20;56.10;;;;;;5066637;28;20071;-35
2024/01/17 09:47:47;;;;;;;5.00;2.20;;;;;;;;;;5064129;28;20048;-32
2024/01/17 09:50:14;;;;;;;3.97;2.00;;;20.00;57.30;;;;;;5063499;28;20099;-37
2024/01/17 09:52:42;;;;;;;3.30;2.05;;;19.80;56.30;;;;;;5063443;28;20044;-35
2024/01/17 09:55:09;;;;;;;3.13;2.20;;;19.90;37.70;;;;;;5065565;28;20072;-33
2024/01/17 09:57:38;;;;;;;2.70;2.00;;;19.80;56.60;;;;;;5063891;28;20094;-39
2024/01/17 10:00:07;;;;;;;3.58;1.95;;;21.00;38.30;;;;;;5064014;28;20110;-34
2024/01/17 10:02:34;;;;;;;2.50;1.90;;;20.20;56.70;;;;;;5066010;28;20041;-34
2024/01/17 10:05:01;;;;;;;3.47;2.00;;;20.60;38.40;;;;;;5063711;28;20447;-34
2024/01/17 10:07:31;;;;;;;3.63;2.10;;;20.20;47.50;;;;;;5061649;28;20383;-34
2024/01/17 10:09:59;;;;;;;3.15;2.10;;;19.00;44.30;;;;;;5064131;28;20052;-35
2024/01/17 10:12:27;;;;;;;3.83;2.40;;;19.10;55.40;;;;;;5064521;28;20049;-39
2024/01/17 10:14:54;;;;;;;3.15;2.00;;;;;;;;;;5066054;28;20421;-33
2024/01/17 10:17:21;;;;;;;2.72;1.95;;;19.40;55.80;;;;;;5062869;28;20056;-39
2024/01/17 10:19:48;;;;;;;3.38;2.17;;;;;;;;;;5064854;28;20049;-37
2024/01/17 10:22:15;;;;;;;2.63;2.05;;;19.90;56.30;;;;;;5063257;28;20099;-39
2024/01/17 10:24:42;;;;;;;2.63;1.88;;;;;;;;;;5063133;28;20452;-36
2024/01/17 10:27:10;;;;;;;3.17;2.13;;;20.10;37.50;;;;;;5064600;28;20053;-33
2024/01/17 10:29:38;;;;;;;5.03;1.95;;;20.50;56.10;;;;;;5053276;28;20127;-37
2024/01/17 10:32:05;;;;;;;3.55;2.05;;;20.20;56.80;;;;;;5057918;28;20457;-29
2024/01/17 10:34:32;;;;;;;3.50;2.10;;;20.20;41.90;;;;;;5065291;28;20551;-34
2024/01/17 10:36:59;;;;;;;2.40;2.00;;;19.90;54.70;;;;;;5065462;28;20497;-36
2024/01/17 10:39:27;;;;;;;2.50;2.00;;;;;;;;;;5061045;28;20048;-32
2024/01/17 10:41:55;;;;;;;4.05;2.05;;;;;;;;;;5065655;28;20755;-28
2024/01/17 10:44:23;;;;;;;3.08;1.98;;;20.00;55.60;;;;;;5062495;28;20045;-29
2024/01/17 10:46:51;;;;;;;3.20;2.15;;;19.60;55.60;;;;;;5071307;28;20049;-28
2024/01/17 10:49:18;;;;;;;3.25;2.20;;;19.90;55.60;;;;;;5063061;28;20136;-29
2024/01/17 10:51:50;;;;;;;3.92;2.03;;;20.30;37.40;;;;;;5058615;28;20045;-33
2024/01/17 10:54:18;;;;;;;3.50;2.28;;;20.00;44.80;;;;;;5053576;28;20057;-30
2024/01/17 10:56:47;;;;;;;2.33;1.95;;;19.70;55.40;;;;;;5053297;28;20045;-37
2024/01/17 10:59:14;;;;;;;4.38;2.20;;;20.50;56.50;;;;;;5061019;28;20052;-36
2024/01/17 11:01:44;;;;;;;3.15;1.95;;;20.50;56.20;;;;;;5063043;28;20049;-38
2024/01/17 11:04:13;;;;;;;4.68;2.38;;;20.30;44.30;;;;;;5062127;28;20052;-35
2024/01/17 11:06:40;;;;;;;3.17;2.28;;;19.50;49.00;;;;;;5062151;28;20057;-35
2024/01/17 11:09:07;;;;;;;3.08;1.90;;;20.20;55.70;;;;;;5062292;28;20045;-35
2024/01/17 11:11:34;;;;;;;3.05;1.98;;;;;;;;;;5064198;28;20094;-29
2024/01/17 11:14:01;;;;;;;3.05;2.10;;;20.00;55.40;;;;;;5062837;28;20556;-28
2024/01/17 11:16:28;;;;;;;3.05;2.10;;;;;;;;;;5062124;28;20106;-35
2024/01/17 11:18:56;;;;;;;3.25;2.10;;;19.80;41.60;;;;;;5052487;28;20485;-36
2024/01/17 11:21:23;;;;;;;3.30;2.17;;;20.30;56.40;;;;;;5053030;28;20053;-36
2024/01/17 11:23:52;;;;;;;3.10;2.00;;;20.50;37.30;;;;;;5052585;28;20041;-34
2024/01/17 11:26:21;;;;;;;3.22;2.10;;;21.00;56.20;;;;;;5052702;28;20490;-35
2024/01/17 11:29:01;;;;;;;3.28;2.20;;;20.70;52.60;;;;;;5052635;28;20048;-35
2024/01/17 11:31:33;;;;;;;3.03;2.10;;;20.30;54.50;;;;;;5063960;28;20056;-36
2024/01/17 11:34:02;;;;;;;3.75;2.20;;;20.50;54.30;;;;;;5052671;28;20040;-36
2024/01/17 11:36:42;;;;;;;3.03;2.30;;;20.70;55.90;;;;;;5054242;28;20056;-35
2024/01/17 11:39:10;;;;;;;3.00;1.90;;;20.50;37.20;;;;;;5062950;28;20058;-37
2024/01/17 11:41:38;;;;;;;4.38;2.00;;;20.40;55.30;;;;;;5061998;28;20087;-36
2024/01/17 11:44:07;;;;;;;3.50;2.30;;;20.70;55.80;;;;;;5061921;28;20049;-27
2024/01/17 11:46:34;;;;;;;4.00;2.20;;;20.30;55.30;;;;;;5063411;28;20041;-30
2024/01/17 11:49:04;;;;;;;2.90;1.92;;;20.80;55.60;;;;;;5061990;28;20045;-31
2024/01/17 11:51:32;;;;;;;3.45;2.15;;;20.40;37.40;;;;;;5061099;28;20456;-34
2024/01/17 11:54:00;;;;;;;4.15;2.45;;;20.50;45.60;;;;;;5062684;28;20040;-37
2024/01/17 11:56:27;;;;;;;3.22;1.90;;;20.70;52.70;;;;;;5063044;28;20059;-36
2024/01/17 11:58:58;;;;;;;3.20;2.10;;;19.60;54.70;;;;;;5061057;28;20044;-38
2024/01/17 12:01:25;;;;;;;3.03;2.03;;;;;;;;;;5061900;28;20098;-33
2024/01/17 12:03:52;;;;;;;4.00;2.20;;;21.50;55.80;;;;;;5061411;28;20048;-39
2024/01/17 12:06:21;;;;;;;2.63;1.92;;;20.90;55.50;;;;;;5061670;28;20052;-38
2024/01/17 12:08:49;;;;;;;3.20;2.00;;;20.30;55.80;;;;;;5060646;28;20057;-37
2024/01/17 12:11:16;;;;;;;2.72;1.80;;;20.40;55.40;;;;;;5063030;28;20094;-35
2024/01/17 12:13:43;;;;;;;3.70;2.00;;;20.40;55.00;;;;;;5062009;28;20049;-38
2024/01/17 12:16:11;;;;;;;3.47;2.10;;;20.70;55.60;;;;;;5060768;28;20049;-34
2024/01/17 12:18:37;;;;;;;4.53;2.13;;;20.10;39.20;;;;;;5062445;28;20110;-36
2024/01/17 12:21:05;;;;;;;2.70;2.00;;;20.70;55.30;;;;;;5061928;28;20099;-35
2024/01/17 12:23:34;;;;;;;2.75;1.90;;;20.60;37.10;;;;;;5060467;28;20494;-34
2024/01/17 12:26:02;;;;;;;4.20;2.40;;;;;;;;;;5062085;28;20040;-34
2024/01/17 12:28:29;;;;;;;2.38;1.90;;;20.00;54.70;;;;;;5062621;28;20053;-35
2024/01/17 12:30:59;;;;;;;3.40;2.10;;;20.40;37.70;;;;;;5060619;28;20052;-31
2024/01/17 12:33:26;;;;;;;3.00;2.15;;;;;;;;;;5063820;28;20102;-33
2024/01/17 12:35:53;;;;;;;2.90;2.08;;;20.70;55.40;;;;;;5054228;28;20053;-29
2024/01/17 12:38:20;;;;;;;3.47;1.92;;;;;;;;;;5052710;28;20057;-32
2024/01/17 12:40:49;;;;;;;3.45;1.95;;;20.20;41.40;;;;;;5051310;28;20502;-31
2024/01/17 12:43:17;;;;;;;2.95;1.95;;;20.90;55.10;;;;;;5070734;28;20084;-30
2024/01/17 12:45:44;;;;;;;4.95;2.15;;;20.70;55.10;;;;;;5071911;28;20055;-29
2024/01/17 12:48:11;;;;;;;3.17;2.08;;;20.80;55.20;;;;;;5071154;28;20414;-29
2024/01/17 12:50:43;;;;;;;2.83;1.70;;;20.70;55.40;;;;;;5071915;28;20083;-30
2024/01/17 12:53:10;;;;;;;3.17;1.90;;;21.30;55.80;;;;;;5071779;28;20083;-29
2024/01/17 12:55:37;;;;;;;2.97;1.83;;;20.90;55.40;;;;;;5071992;28;20075;-29
2024/01/17 12:58:05;;;;;;;2.58;1.92;;;21.20;55.80;;;;;;5071424;28;20440;-30
2024/01/17 13:00:32;;;;;;;2.80;1.77;;;21.00;54.20;;;;;;5065622;28;20060;-29
2024/01/17 13:02:59;;;;;;;3.63;2.00;;;20.40;44.10;;;;;;5054374;28;20139;-30
2024/01/17 13:05:26;;;;;;;3.25;1.98;;;20.50;55.40;;;;;;5053620;28;20402;-29
2024/01/17 13:07:53;;;;;;;2.60;1.85;;;;;;;;;;5071056;28;20060;-33
2024/01/17 13:10:22;;;;;;;3.67;2.13;;;21.40;56.30;;;;;;5071248;28;20078;-29
2024/01/17 13:12:49;;;;;;;3.22;1.90;;;20.90;55.60;;;;;;5071371;28;20135;-29